Pagrindinis puslapis
METAR-TAF:

METAR-TAF

Oro uostai :

Pnompenis, Kambodža

platuma: 11-33N, ilguma: 104-51E, Aukštis: 10 m

Dabartinis oras

Ataskaita buvo paskelbta 29 minutes, ne 05:00 UTC
Vėjas 3 kt nuo kintamojo kryptimis
Temperatūra 31°C
Drėgmė 63%
Slėgis 1008 hPa
Matomumas 10 km arba daugiau
Išsisklaidę debesys ne aukštis 1500 ft
Išsisklaidę debesys ne aukštis 4000 ft

METAR: VDPP 140500Z VRB03KT 9999 SCT015 SCT040 31/23 Q1008

Laikas: 12:29 (05:29 UTC)

Prognozė

Ataskaita buvo paskelbta 6 valandos ir 29 minutes, ne 23:00 UTC
Prognozė galioja nuo 14 metu 00 UTC su 14 metu 18 UTC
Vėjas 7 kt iš Pietų/Pietvakarių
Matomumas 10 km arba daugiau
Mažai debesys ne aukštis 1700 ft
Laikinai
nuo 14 metu 07 UTC su 14 metu 11 UTC
Išsisklaidę debesys ne aukštis 1500 ft
Mažai debesys ne aukštis 1700 ft, Liūtiniai kamuoliniai debesys.
Išsisklaidę debesys ne aukštis 4000 ft

TAF: VDPP 132300Z 1400/1418 21007KT 9999 FEW017 TEMPO 1407/1411 SCT015 FEW017CB SCT040

Orai ataskaitas ir orų prognozės (METAR, TAF).

turimą stotys yra geltonos ir raudonos taškus žemėlapyje.

Perkelti pele per norėdami pamatyti stoties vardą.

Tada spustelėkite, norėdami matyti oro stebėjimo ir prognozės.

Norėdami pakeisti žemėlapį: spustelėkite ant žalios mygtukų su juodo kryžiaus žemyn,; žalią mygtuką su brūkšneliu, jei norite nutolinti; arba žalių rodyklių gretimoms žemėlapius.


METAR-TAF: